Time;durP1;ratioP1;P1;durP2;ratioP2;P2;SDS_P1;SDS_P2;PMS_P1;PMS_P2;Temp;Humidity;BMP_temperature;BMP_pressure;BME280_temperature;BME280_humidity;BME280_pressure;Samples;Min_cycle;Max_cycle;Signal;HPM_P1;HPM_P2
2023/04/07 00:01:12;;;;;;;;;;;;;;;;;;2200588;59;1678;-20
2023/04/07 00:03:43;;;;;;;;;;;;;;;;;;2201350;59;2118;-20
2023/04/07 00:06:13;;;;;;;;;;;;;;;;;;2201305;67;1428;-20
2023/04/07 00:08:43;;;;;;;;;;;;;;;;;;2200073;59;2068;-20
2023/04/07 00:11:13;;;;;;;;;;;;;;;;;;2201218;59;1665;-20
2023/04/07 00:13:47;;;;;;;;;;;;;;;;;;2198757;59;1482;-20
2023/04/07 00:16:17;;;;;;;;;;;;;;;;;;2197035;67;1715;-20
2023/04/07 00:18:47;;;;;;;;;;;;;;;;;;2201773;67;1764;-20
2023/04/07 00:21:17;;;;;;;;;;;;;;;;;;2201234;67;1633;-20
2023/04/07 00:23:47;;;;;;;;;;;;;;;;;;2200572;67;1452;-20
2023/04/07 00:26:18;;;;;;;;;;;;;;;;;;2200223;67;2295;-20
2023/04/07 00:28:48;;;;;;;;;;;;;;;;;;2200369;67;1939;-20
2023/04/07 00:31:18;;;;;;;;;;;;;;;;;;2197636;59;1396;-20
2023/04/07 00:33:48;;;;;;;;;;;;;;;;;;2201072;59;1917;-20
2023/04/07 00:36:19;;;;;;;;;;;;;;;;;;2200317;59;1236;-20
2023/04/07 00:38:49;;;;;;;;;;;;;;;;;;2199837;67;1171;-20
2023/04/07 00:41:19;;;;;;;;;;;;;;;;;;2200686;59;1604;-21
2023/04/07 00:43:50;;;;;;;;;;;;;;;;;;2201306;59;1803;-20
2023/04/07 00:46:21;;;;;;;;;;;;;;;;;;2200911;59;1327;-20
2023/04/07 00:48:51;;;;;;;;;;;;;;;;;;2200273;67;1958;-20
2023/04/07 00:51:22;;;;;;;;;;;;;;;;;;2200244;67;1196;-20
2023/04/07 00:53:53;;;;;;;;;;;;;;;;;;2200879;67;1579;-20
2023/04/07 00:56:26;;;;;;;;;;;;;;;;;;2200643;59;1359;-20
2023/04/07 00:58:56;;;;;;;;;;;;;;;;;;2200348;67;1553;-20
2023/04/07 01:01:34;;;;;;;;;;;;;;;;;;2202040;67;1537;-20
2023/04/07 01:04:11;;;;;;;;;;;;;;;;;;2198113;59;1452;-21
2023/04/07 01:06:46;;;;;;;;;;;;;;;;;;2197017;67;1246;-20
2023/04/07 01:09:21;;;;;;;;;;;;;;;;;;2200185;59;2247;-21
2023/04/07 01:11:58;;;;;;;;;;;;;;;;;;2201695;59;1616;-21
2023/04/07 01:14:31;;;;;;;;;;;;;;;;;;2202362;67;1251;-21
2023/04/07 01:17:02;;;;;;;;;;;;;;;;;;2201507;67;1367;-21
2023/04/07 01:19:32;;;;;;;;;;;;;;;;;;2198444;67;1189;-21
2023/04/07 01:22:06;;;;;;;;;;;;;;;;;;2198598;67;1464;-21
2023/04/07 01:24:55;;;;;;;;;;;;;;;;;;2202804;67;1173;-21
2023/04/07 01:27:26;;;;;;;;;;;;;;;;;;2198923;67;1939;-21
2023/04/07 01:29:57;;;;;;;;;;;;;;;;;;2198294;67;1317;-21
2023/04/07 01:32:29;;;;;;;;;;;;;;;;;;2202320;59;1871;-21
2023/04/07 01:35:00;;;;;;;;;;;;;;;;;;2199485;59;1268;-21
2023/04/07 01:37:31;;;;;;;;;;;;;;;;;;2195228;67;1318;-21
2023/04/07 01:40:01;;;;;;;;;;;;;;;;;;2201435;67;1316;-21
2023/04/07 01:42:33;;;;;;;;;;;;;;;;;;2202592;59;1781;-21
2023/04/07 01:45:03;;;;;;;;;;;;;;;;;;2201683;67;1230;-21
2023/04/07 01:47:54;;;;;;;;;;;;;;;;;;2202372;59;2826;-21
2023/04/07 01:50:25;;;;;;;;;;;;;;;;;;2202205;59;2121;-21
2023/04/07 01:52:55;;;;;;;;;;;;;;;;;;2201665;67;1168;-21
2023/04/07 01:55:25;;;;;;;;;;;;;;;;;;2201286;67;1423;-21
2023/04/07 02:00:30;;;;;;;;;;;;;;;;;;2199228;67;1466;-20
2023/04/07 02:03:06;;;;;;;;;;;;;;;;;;2196489;67;1155;-21
2023/04/07 02:05:38;;;;;;;;;;;;;;;;;;2201680;67;1340;-21
2023/04/07 02:08:10;;;;;;;;;;;;;;;;;;2202222;67;1925;-21
2023/04/07 02:10:40;;;;;;;;;;;;;;;;;;2203161;59;1121;-21
2023/04/07 02:13:14;;;;;;;;;;;;;;;;;;2202647;59;2230;-21
2023/04/07 02:15:45;;;;;;;;;;;;;;;;;;2202662;67;1534;-20
2023/04/07 02:18:17;;;;;;;;;;;;;;;;;;2202251;67;1150;-20
2023/04/07 02:20:49;;;;;;;;;;;;;;;;;;2202339;59;1283;-21
2023/04/07 02:23:19;;;;;;;;;;;;;;;;;;2201687;60;1638;-21
2023/04/07 02:25:50;;;;;;;;;;;;;;;;;;2197181;67;1196;-20
2023/04/07 02:28:20;;;;;;;;;;;;;;;;;;2203706;67;1928;-20
2023/04/07 02:30:50;;;;;;;;;;;;;;;;;;2201869;67;1130;-21
2023/04/07 02:33:20;;;;;;;;;;;;;;;;;;2202072;59;1149;-21
2023/04/07 02:35:50;;;;;;;;;;;;;;;;;;2197945;59;1246;-21
2023/04/07 02:38:21;;;;;;;;;;;;;;;;;;2202400;67;1876;-20
2023/04/07 02:40:51;;;;;;;;;;;;;;;;;;2201925;59;1848;-21
2023/04/07 02:43:22;;;;;;;;;;;;;;;;;;2201440;67;1229;-21
2023/04/07 02:45:53;;;;;;;;;;;;;;;;;;2202459;67;1303;-21
2023/04/07 02:48:23;;;;;;;;;;;;;;;;;;2201550;59;1920;-21
2023/04/07 02:50:54;;;;;;;;;;;;;;;;;;2197630;59;1891;-21
2023/04/07 02:53:24;;;;;;;;;;;;;;;;;;2202017;67;1217;-21
2023/04/07 02:55:54;;;;;;;;;;;;;;;;;;2201756;59;1242;-21
2023/04/07 02:58:25;;;;;;;;;;;;;;;;;;2201929;59;1156;-21
2023/04/07 03:00:55;;;;;;;;;;;;;;;;;;2201811;67;1443;-21
2023/04/07 03:03:25;;;;;;;;;;;;;;;;;;2198423;67;1143;-21
2023/04/07 03:05:56;;;;;;;;;;;;;;;;;;2201536;67;1234;-20
2023/04/07 03:08:26;;;;;;;;;;;;;;;;;;2201589;67;1937;-20
2023/04/07 03:10:56;;;;;;;;;;;;;;;;;;2201215;59;1622;-20
2023/04/07 03:13:28;;;;;;;;;;;;;;;;;;2201211;59;1530;-20
2023/04/07 03:15:58;;;;;;;;;;;;;;;;;;2201485;67;1376;-19
2023/04/07 03:18:29;;;;;;;;;;;;;;;;;;2201666;59;1856;-20
2023/04/07 03:20:59;;;;;;;;;;;;;;;;;;2201178;59;1714;-20
2023/04/07 03:23:29;;;;;;;;;;;;;;;;;;2198638;67;1269;-20
2023/04/07 03:25:59;;;;;;;;;;;;;;;;;;2201302;59;1282;-20
2023/04/07 03:28:30;;;;;;;;;;;;;;;;;;2201315;67;1987;-20
2023/04/07 03:31:01;;;;;;;;;;;;;;;;;;2200927;59;1212;-20
2023/04/07 03:33:31;;;;;;;;;;;;;;;;;;2201718;59;1668;-20
2023/04/07 03:36:01;;;;;;;;;;;;;;;;;;2197687;59;1366;-20
2023/04/07 03:38:32;;;;;;;;;;;;;;;;;;2201444;67;1214;-20
2023/04/07 03:41:02;;;;;;;;;;;;;;;;;;2201915;59;1247;-20
2023/04/07 03:43:32;;;;;;;;;;;;;;;;;;2198692;67;1399;-20
2023/04/07 03:46:02;;;;;;;;;;;;;;;;;;2201633;67;1293;-20
2023/04/07 03:48:33;;;;;;;;;;;;;;;;;;2198433;67;1989;-20
2023/04/07 03:51:03;;;;;;;;;;;;;;;;;;2201444;67;1693;-21
2023/04/07 03:53:33;;;;;;;;;;;;;;;;;;2200826;67;1673;-21
2023/04/07 03:56:03;;;;;;;;;;;;;;;;;;2198426;59;1383;-21
2023/04/07 03:58:34;;;;;;;;;;;;;;;;;;2202115;59;1994;-21
2023/04/07 04:01:04;;;;;;;;;;;;;;;;;;2198343;67;1445;-20
2023/04/07 04:03:34;;;;;;;;;;;;;;;;;;2198300;67;1262;-20
2023/04/07 04:06:05;;;;;;;;;;;;;;;;;;2198517;67;1292;-20
2023/04/07 04:08:35;;;;;;;;;;;;;;;;;;2201838;67;1993;-20
2023/04/07 04:11:05;;;;;;;;;;;;;;;;;;2201911;59;1328;-20
2023/04/07 04:13:35;;;;;;;;;;;;;;;;;;2201852;59;1288;-20
2023/04/07 04:16:06;;;;;;;;;;;;;;;;;;2201830;59;1286;-20
2023/04/07 04:18:36;;;;;;;;;;;;;;;;;;2201604;67;1726;-20
2023/04/07 04:21:07;;;;;;;;;;;;;;;;;;2201449;67;1159;-20
2023/04/07 04:23:37;;;;;;;;;;;;;;;;;;2197875;67;1544;-20
2023/04/07 04:26:07;;;;;;;;;;;;;;;;;;2201354;59;2263;-19
2023/04/07 04:28:37;;;;;;;;;;;;;;;;;;2201266;67;1975;-20
2023/04/07 04:31:08;;;;;;;;;;;;;;;;;;2197340;67;1855;-20
2023/04/07 04:33:38;;;;;;;;;;;;;;;;;;2201724;59;1648;-20
2023/04/07 04:36:08;;;;;;;;;;;;;;;;;;2201329;67;1317;-20
2023/04/07 04:38:38;;;;;;;;;;;;;;;;;;2201406;67;1118;-20
2023/04/07 04:41:08;;;;;;;;;;;;;;;;;;2198653;59;1647;-19
2023/04/07 04:43:39;;;;;;;;;;;;;;;;;;2201311;67;1275;-20
2023/04/07 04:46:09;;;;;;;;;;;;;;;;;;2201299;67;1627;-19
2023/04/07 04:48:39;;;;;;;;;;;;;;;;;;2200802;67;1929;-20
2023/04/07 04:51:09;;;;;;;;;;;;;;;;;;2200998;59;1165;-20
2023/04/07 04:53:40;;;;;;;;;;;;;;;;;;2201517;67;1330;-20
2023/04/07 04:56:10;;;;;;;;;;;;;;;;;;2201323;59;1247;-20
2023/04/07 04:58:44;;;;;;;;;;;;;;;;;;2201168;59;1337;-19
2023/04/07 05:01:15;;;;;;;;;;;;;;;;;;2197216;67;1129;-20
2023/04/07 05:03:45;;;;;;;;;;;;;;;;;;2201334;59;1611;-21
2023/04/07 05:06:15;;;;;;;;;;;;;;;;;;2200462;59;2255;-20
2023/04/07 05:08:46;;;;;;;;;;;;;;;;;;2200421;59;1951;-21
2023/04/07 05:11:16;;;;;;;;;;;;;;;;;;2201117;59;1314;-20
2023/04/07 05:13:46;;;;;;;;;;;;;;;;;;2201492;59;2075;-20
2023/04/07 05:16:16;;;;;;;;;;;;;;;;;;2201152;59;1267;-20
2023/04/07 05:18:47;;;;;;;;;;;;;;;;;;2200744;67;1128;-21
2023/04/07 05:21:19;;;;;;;;;;;;;;;;;;2201155;67;1609;-21
2023/04/07 05:23:49;;;;;;;;;;;;;;;;;;2200881;59;1332;-20
2023/04/07 05:26:20;;;;;;;;;;;;;;;;;;2201333;67;1859;-21
2023/04/07 05:28:50;;;;;;;;;;;;;;;;;;2201050;67;1922;-21
2023/04/07 05:31:20;;;;;;;;;;;;;;;;;;2201290;59;1240;-21
2023/04/07 05:33:51;;;;;;;;;;;;;;;;;;2201494;59;1946;-21
2023/04/07 05:36:21;;;;;;;;;;;;;;;;;;2201620;59;1372;-20
2023/04/07 05:38:51;;;;;;;;;;;;;;;;;;2201605;67;1556;-20
2023/04/07 05:41:21;;;;;;;;;;;;;;;;;;2201259;59;1676;-21
2023/04/07 05:43:52;;;;;;;;;;;;;;;;;;2201292;67;1341;-21
2023/04/07 05:46:22;;;;;;;;;;;;;;;;;;2200977;59;1474;-21
2023/04/07 05:48:52;;;;;;;;;;;;;;;;;;2201058;59;1995;-21
2023/04/07 05:51:22;;;;;;;;;;;;;;;;;;2197170;67;1634;-21
2023/04/07 05:53:52;;;;;;;;;;;;;;;;;;2201339;67;1408;-20
2023/04/07 05:56:23;;;;;;;;;;;;;;;;;;2201065;67;1245;-21
2023/04/07 05:58:53;;;;;;;;;;;;;;;;;;2198288;59;1651;-21
2023/04/07 06:01:23;;;;;;;;;;;;;;;;;;2203410;67;1388;-21
2023/04/07 06:03:54;;;;;;;;;;;;;;;;;;2197568;67;1247;-21
2023/04/07 06:06:25;;;;;;;;;;;;;;;;;;2202138;67;2019;-21
2023/04/07 06:08:55;;;;;;;;;;;;;;;;;;2200231;59;2179;-21
2023/04/07 06:11:26;;;;;;;;;;;;;;;;;;2201969;59;1358;-21
2023/04/07 06:13:56;;;;;;;;;;;;;;;;;;2201951;59;1716;-21
2023/04/07 06:16:27;;;;;;;;;;;;;;;;;;2198458;67;1328;-21
2023/04/07 06:18:57;;;;;;;;;;;;;;;;;;2197751;59;2160;-21
2023/04/07 06:21:27;;;;;;;;;;;;;;;;;;2201310;67;1623;-21
2023/04/07 06:23:57;;;;;;;;;;;;;;;;;;2203038;67;1234;-21
2023/04/07 06:26:28;;;;;;;;;;;;;;;;;;2203757;67;2032;-21
2023/04/07 06:28:58;;;;;;;;;;;;;;;;;;2200225;59;1988;-21
2023/04/07 06:31:28;;;;;;;;;;;;;;;;;;2201311;59;2410;-21
2023/04/07 06:33:59;;;;;;;;;;;;;;;;;;2201774;59;1750;-21
2023/04/07 06:36:29;;;;;;;;;;;;;;;;;;2200696;59;2157;-21
2023/04/07 06:38:59;;;;;;;;;;;;;;;;;;2201841;67;1592;-21
2023/04/07 06:41:33;;;;;;;;;;;;;;;;;;2198046;59;2201;-21
2023/04/07 06:44:03;;;;;;;;;;;;;;;;;;2197592;67;1433;-21
2023/04/07 06:46:34;;;;;;;;;;;;;;;;;;2200419;59;2240;-22
2023/04/07 06:49:04;;;;;;;;;;;;;;;;;;2201081;59;1991;-21
2023/04/07 06:51:34;;;;;;;;;;;;;;;;;;2201664;59;2510;-21
2023/04/07 06:54:06;;;;;;;;;;;;;;;;;;2201456;67;1200;-21
2023/04/07 06:56:36;;;;;;;;;;;;;;;;;;2201456;59;2337;-22
2023/04/07 06:59:07;;;;;;;;;;;;;;;;;;2200773;59;2609;-21
2023/04/07 07:01:37;;;;;;;;;;;;;;;;;;2200790;59;2345;-21
2023/04/07 07:04:07;;;;;;;;;;;;;;;;;;2201413;59;2064;-21
2023/04/07 07:06:37;;;;;;;;;;;;;;;;;;2201039;59;2508;-21
2023/04/07 07:09:07;;;;;;;;;;;;;;;;;;2201378;59;1983;-22
2023/04/07 07:11:39;;;;;;;;;;;;;;;;;;2201221;59;2502;-19
2023/04/07 07:14:09;;;;;;;;;;;;;;;;;;2201083;59;1268;-19
2023/04/07 07:16:40;;;;;;;;;;;;;;;;;;2201305;59;2260;-22
2023/04/07 07:19:10;;;;;;;;;;;;;;;;;;2203119;67;1197;-19
2023/04/07 07:21:40;;;;;;;;;;;;;;;;;;2200926;67;2575;-19
2023/04/07 07:24:10;;;;;;;;;;;;;;;;;;2201562;67;1261;-19
2023/04/07 07:26:41;;;;;;;;;;;;;;;;;;2201419;59;2048;-19
2023/04/07 07:29:11;;;;;;;;;;;;;;;;;;2200447;59;2347;-19
2023/04/07 07:31:41;;;;;;;;;;;;;;;;;;2200742;59;2222;-19
2023/04/07 07:34:11;;;;;;;;;;;;;;;;;;2201595;59;1757;-19
2023/04/07 07:36:42;;;;;;;;;;;;;;;;;;2200042;59;2257;-19
2023/04/07 07:39:13;;;;;;;;;;;;;;;;;;2200842;59;2494;-19
2023/04/07 07:41:43;;;;;;;;;;;;;;;;;;2199849;59;2175;-19
2023/04/07 07:44:13;;;;;;;;;;;;;;;;;;2201153;67;1269;-19
2023/04/07 07:46:43;;;;;;;;;;;;;;;;;;2201207;59;2201;-19
2023/04/07 07:49:14;;;;;;;;;;;;;;;;;;2201577;67;1990;-19
2023/04/07 07:51:45;;;;;;;;;;;;;;;;;;2200574;59;2416;-20
2023/04/07 07:54:15;;;;;;;;;;;;;;;;;;2201218;67;1355;-19
2023/04/07 07:56:45;;;;;;;;;;;;;;;;;;2201184;59;2012;-19
2023/04/07 07:59:16;;;;;;;;;;;;;;;;;;2202580;59;1114;-19
2023/04/07 08:01:46;;;;;;;;;;;;;;;;;;2201012;59;2152;-19
2023/04/07 08:04:16;;;;;;;;;;;;;;;;;;2201510;67;1331;-19
2023/04/07 08:06:46;;;;;;;;;;;;;;;;;;2201198;59;2058;-19
2023/04/07 08:09:17;;;;;;;;;;;;;;;;;;2200852;59;2851;-19
2023/04/07 08:11:47;;;;;;;;;;;;;;;;;;2200686;59;2186;-19
2023/04/07 08:14:18;;;;;;;;;;;;;;;;;;2199140;59;1205;-19
2023/04/07 08:16:48;;;;;;;;;;;;;;;;;;2200718;59;2215;-19
2023/04/07 08:19:18;;;;;;;;;;;;;;;;;;2200663;67;2053;-19
2023/04/07 08:21:48;;;;;;;;;;;;;;;;;;2200478;59;2157;-19
2023/04/07 08:24:19;;;;;;;;;;;;;;;;;;2200628;59;2151;-19
2023/04/07 08:26:49;;;;;;;;;;;;;;;;;;2198040;59;2084;-19
2023/04/07 08:29:19;;;;;;;;;;;;;;;;;;2194970;59;2208;-19
2023/04/07 08:31:49;;;;;;;;;;;;;;;;;;2200210;67;1214;-19
2023/04/07 08:34:20;;;;;;;;;;;;;;;;;;2201153;59;2199;-19
2023/04/07 08:36:50;;;;;;;;;;;;;;;;;;2200192;59;2728;-19
2023/04/07 08:39:21;;;;;;;;;;;;;;;;;;2199438;60;2243;-19
2023/04/07 08:41:53;;;;;;;;;;;;;;;;;;2200725;59;1675;-19
2023/04/07 08:44:24;;;;;;;;;;;;;;;;;;2194212;59;2339;-19
2023/04/07 08:46:56;;;;;;;;;;;;;;;;;;2200331;59;1412;-20
2023/04/07 08:49:30;;;;;;;;;;;;;;;;;;2200744;59;2298;-20
2023/04/07 08:52:05;;;;;;;;;;;;;;;;;;2201105;67;1656;-20
2023/04/07 08:54:35;;;;;;;;;;;;;;;;;;2201727;59;2096;-20
2023/04/07 08:57:06;;;;;;;;;;;;;;;;;;2200992;67;1333;-19
2023/04/07 08:59:40;;;;;;;;;;;;;;;;;;2201079;59;2304;-20
2023/04/07 09:02:10;;;;;;;;;;;;;;;;;;2200929;67;2086;-20
2023/04/07 09:04:42;;;;;;;;;;;;;;;;;;2197443;67;1361;-20
2023/04/07 09:07:12;;;;;;;;;;;;;;;;;;2200615;59;2102;-20
2023/04/07 09:09:42;;;;;;;;;;;;;;;;;;2200722;59;1929;-20
2023/04/07 09:12:13;;;;;;;;;;;;;;;;;;2200604;59;2078;-21
2023/04/07 09:14:43;;;;;;;;;;;;;;;;;;2200576;59;2166;-20
2023/04/07 09:17:13;;;;;;;;;;;;;;;;;;2196658;59;2164;-20
2023/04/07 09:19:47;;;;;;;;;;;;;;;;;;2199880;59;1714;-20
2023/04/07 09:22:36;;;;;;;;;;;;;;;;;;2197097;67;2834;-19
2023/04/07 09:25:21;;;;;;;;;;;;;;;;;;2200271;67;2092;-21
2023/04/07 09:27:55;;;;;;;;;;;;;;;;;;2200509;59;2219;-20
2023/04/07 09:30:27;;;;;;;;;;;;;;;;;;2200684;59;1224;-20
2023/04/07 09:32:58;;;;;;;;;;;;;;;;;;2201225;59;2155;-20
2023/04/07 09:35:28;;;;;;;;;;;;;;;;;;2198597;59;1894;-19
2023/04/07 09:38:02;;;;;;;;;;;;;;;;;;2200362;67;2282;-20
2023/04/07 09:40:33;;;;;;;;;;;;;;;;;;2195492;59;2488;-20
2023/04/07 09:43:04;;;;;;;;;;;;;;;;;;2200401;59;2472;-19
2023/04/07 09:45:34;;;;;;;;;;;;;;;;;;2196458;59;2027;-20
2023/04/07 09:48:06;;;;;;;;;;;;;;;;;;2197452;59;1971;-20
2023/04/07 09:50:39;;;;;;;;;;;;;;;;;;2201427;59;1447;-20
2023/04/07 09:53:10;;;;;;;;;;;;;;;;;;2201339;59;2500;-20
2023/04/07 09:55:41;;;;;;;;;;;;;;;;;;2200997;59;2031;-20
2023/04/07 09:58:12;;;;;;;;;;;;;;;;;;2200566;59;2094;-20
2023/04/07 10:00:43;;;;;;;;;;;;;;;;;;2197275;59;2265;-20
2023/04/07 10:03:14;;;;;;;;;;;;;;;;;;2201578;59;2209;-19
2023/04/07 10:05:44;;;;;;;;;;;;;;;;;;2201027;59;1546;-19
2023/04/07 10:08:15;;;;;;;;;;;;;;;;;;2200507;59;2371;-20
2023/04/07 10:10:46;;;;;;;;;;;;;;;;;;2201745;59;1295;-20
2023/04/07 10:13:17;;;;;;;;;;;;;;;;;;2201597;59;2113;-19
2023/04/07 10:15:48;;;;;;;;;;;;;;;;;;2201595;67;1143;-19
2023/04/07 10:18:19;;;;;;;;;;;;;;;;;;2200990;59;2891;-19
2023/04/07 10:20:51;;;;;;;;;;;;;;;;;;2201347;67;1491;-20
2023/04/07 10:23:25;;;;;;;;;;;;;;;;;;2201236;59;2353;-19
2023/04/07 10:25:57;;;;;;;;;;;;;;;;;;2200736;59;1890;-20
2023/04/07 10:28:29;;;;;;;;;;;;;;;;;;2200862;59;2048;-20
2023/04/07 10:30:59;;;;;;;;;;;;;;;;;;2201556;59;1245;-19
2023/04/07 10:33:47;;;;;;;;;;;;;;;;;;2200440;59;2107;-20
2023/04/07 10:36:18;;;;;;;;;;;;;;;;;;2201751;59;1768;-19
2023/04/07 10:39:21;;;;;;;;;;;;;;;;;;2200725;59;2608;-19
2023/04/07 10:41:52;;;;;;;;;;;;;;;;;;2196598;59;2517;-19
2023/04/07 10:44:37;;;;;;;;;;;;;;;;;;2201236;59;2124;-20
2023/04/07 10:47:08;;;;;;;;;;;;;;;;;;2200625;67;1175;-19
2023/04/07 10:49:38;;;;;;;;;;;;;;;;;;2200586;59;2389;-20
2023/04/07 10:52:11;;;;;;;;;;;;;;;;;;2198179;59;1296;-19
2023/04/07 10:54:41;;;;;;;;;;;;;;;;;;2201396;59;2096;-20
2023/04/07 10:57:13;;;;;;;;;;;;;;;;;;2202692;59;2038;-20
2023/04/07 11:00:03;;;;;;;;;;;;;;;;;;2201122;59;2840;-20
2023/04/07 11:02:33;;;;;;;;;;;;;;;;;;2201049;67;1418;-20
2023/04/07 11:05:05;;;;;;;;;;;;;;;;;;2201395;59;2079;-19
2023/04/07 11:07:49;;;;;;;;;;;;;;;;;;2201837;67;2004;-20
2023/04/07 11:10:20;;;;;;;;;;;;;;;;;;2194442;59;2215;-20
2023/04/07 11:12:58;;;;;;;;;;;;;;;;;;2198046;67;1176;-20
2023/04/07 11:15:28;;;;;;;;;;;;;;;;;;2197463;59;2015;-21
2023/04/07 11:18:06;;;;;;;;;;;;;;;;;;2197997;67;1887;-20
2023/04/07 11:20:44;;;;;;;;;;;;;;;;;;2201015;59;2214;-20
2023/04/07 11:23:15;;;;;;;;;;;;;;;;;;2201754;67;1242;-20
2023/04/07 11:25:47;;;;;;;;;;;;;;;;;;2199697;59;2206;-20
2023/04/07 11:28:17;;;;;;;;;;;;;;;;;;2201117;59;2249;-20
2023/04/07 11:30:50;;;;;;;;;;;;;;;;;;2200225;59;2070;-20
2023/04/07 11:33:22;;;;;;;;;;;;;;;;;;2198316;67;1521;-20
2023/04/07 11:35:56;;;;;;;;;;;;;;;;;;2201311;59;2222;-20
2023/04/07 11:38:27;;;;;;;;;;;;;;;;;;2196828;59;1747;-20
2023/04/07 11:41:08;;;;;;;;;;;;;;;;;;2200011;59;3155;-20
2023/04/07 11:43:40;;;;;;;;;;;;;;;;;;2200379;59;2562;-19
2023/04/07 11:46:15;;;;;;;;;;;;;;;;;;2201464;59;2005;-19
2023/04/07 11:48:46;;;;;;;;;;;;;;;;;;2200693;67;1935;-20
2023/04/07 11:51:17;;;;;;;;;;;;;;;;;;2201196;59;2141;-20
2023/04/07 11:53:55;;;;;;;;;;;;;;;;;;2201454;67;1166;-19
2023/04/07 11:56:26;;;;;;;;;;;;;;;;;;2201127;67;2212;-20
2023/04/07 11:58:57;;;;;;;;;;;;;;;;;;2201463;59;1722;-20
2023/04/07 12:01:39;;;;;;;;;;;;;;;;;;2201376;67;2268;-19
2023/04/07 12:04:11;;;;;;;;;;;;;;;;;;2201497;67;1129;-19
2023/04/07 12:06:42;;;;;;;;;;;;;;;;;;2196608;59;2172;-19
2023/04/07 12:09:27;;;;;;;;;;;;;;;;;;2197618;59;1916;-19
2023/04/07 12:11:57;;;;;;;;;;;;;;;;;;2200502;59;2272;-20
2023/04/07 12:14:28;;;;;;;;;;;;;;;;;;2194466;59;2416;-20
2023/04/07 12:17:00;;;;;;;;;;;;;;;;;;2200397;59;2293;-20
2023/04/07 12:19:34;;;;;;;;;;;;;;;;;;2201614;67;1716;-20
2023/04/07 12:22:04;;;;;;;;;;;;;;;;;;2200607;59;2433;-20
2023/04/07 12:24:35;;;;;;;;;;;;;;;;;;2197418;67;1334;-20
2023/04/07 12:27:05;;;;;;;;;;;;;;;;;;2200232;59;2166;-20
2023/04/07 12:29:36;;;;;;;;;;;;;;;;;;2199933;59;2151;-19
2023/04/07 12:32:06;;;;;;;;;;;;;;;;;;2197628;59;2244;-18
2023/04/07 12:34:36;;;;;;;;;;;;;;;;;;2197103;59;2197;-18
2023/04/07 12:37:07;;;;;;;;;;;;;;;;;;2197897;59;2132;-19
2023/04/07 12:39:37;;;;;;;;;;;;;;;;;;2203175;67;2084;-19
2023/04/07 12:42:10;;;;;;;;;;;;;;;;;;2199509;59;2248;-19
2023/04/07 12:44:40;;;;;;;;;;;;;;;;;;2202618;67;2535;-19
2023/04/07 12:47:11;;;;;;;;;;;;;;;;;;2200873;59;2154;-19
2023/04/07 12:49:41;;;;;;;;;;;;;;;;;;2200500;67;1968;-19
2023/04/07 12:52:11;;;;;;;;;;;;;;;;;;2201043;59;2192;-19
2023/04/07 12:54:43;;;;;;;;;;;;;;;;;;2201561;67;1241;-19
2023/04/07 12:57:13;;;;;;;;;;;;;;;;;;2201062;59;2097;-19
2023/04/07 12:59:44;;;;;;;;;;;;;;;;;;2197135;59;1292;-19
2023/04/07 13:02:16;;;;;;;;;;;;;;;;;;2201334;67;1373;-19
2023/04/07 13:04:47;;;;;;;;;;;;;;;;;;2200928;59;2344;-19
2023/04/07 13:07:17;;;;;;;;;;;;;;;;;;2201061;67;1243;-18
2023/04/07 13:09:47;;;;;;;;;;;;;;;;;;2200226;59;2172;-19
2023/04/07 13:12:17;;;;;;;;;;;;;;;;;;2201425;67;1185;-18
2023/04/07 13:14:48;;;;;;;;;;;;;;;;;;2200932;59;2096;-18
2023/04/07 13:17:18;;;;;;;;;;;;;;;;;;2201462;67;1361;-18
2023/04/07 13:19:49;;;;;;;;;;;;;;;;;;2194279;59;2058;-19
2023/04/07 13:22:19;;;;;;;;;;;;;;;;;;2197825;67;1490;-19
2023/04/07 13:24:49;;;;;;;;;;;;;;;;;;2200926;59;2131;-18
2023/04/07 13:27:20;;;;;;;;;;;;;;;;;;2201370;67;1718;-19
2023/04/07 13:29:53;;;;;;;;;;;;;;;;;;2200458;59;2343;-19
2023/04/07 13:32:23;;;;;;;;;;;;;;;;;;2201457;67;2520;-18
2023/04/07 13:34:53;;;;;;;;;;;;;;;;;;2200366;59;2024;-18
2023/04/07 13:37:23;;;;;;;;;;;;;;;;;;2200828;59;1322;-18
2023/04/07 13:39:53;;;;;;;;;;;;;;;;;;2199341;59;2075;-19
2023/04/07 13:42:24;;;;;;;;;;;;;;;;;;2196535;59;2233;-18
2023/04/07 13:44:54;;;;;;;;;;;;;;;;;;2196328;59;2260;-18
2023/04/07 13:47:25;;;;;;;;;;;;;;;;;;2200530;67;1247;-18
2023/04/07 13:49:55;;;;;;;;;;;;;;;;;;2200157;59;2045;-18
2023/04/07 13:52:26;;;;;;;;;;;;;;;;;;2200883;59;1260;-18
2023/04/07 13:54:56;;;;;;;;;;;;;;;;;;2200916;59;2148;-18
2023/04/07 13:57:26;;;;;;;;;;;;;;;;;;2201372;67;1515;-19
2023/04/07 13:59:57;;;;;;;;;;;;;;;;;;2200795;59;2127;-19
2023/04/07 14:02:28;;;;;;;;;;;;;;;;;;2201381;67;1509;-20
2023/04/07 14:04:59;;;;;;;;;;;;;;;;;;2200775;59;2599;-19
2023/04/07 14:07:29;;;;;;;;;;;;;;;;;;2200726;59;1855;-20
2023/04/07 14:10:03;;;;;;;;;;;;;;;;;;2199995;59;2038;-19
2023/04/07 14:12:36;;;;;;;;;;;;;;;;;;2200837;67;1813;-20
2023/04/07 14:15:07;;;;;;;;;;;;;;;;;;2200463;59;2019;-19
2023/04/07 14:17:37;;;;;;;;;;;;;;;;;;2200260;59;2077;-20
2023/04/07 14:20:08;;;;;;;;;;;;;;;;;;2196533;59;2106;-19
2023/04/07 14:22:38;;;;;;;;;;;;;;;;;;2201271;59;1314;-20
2023/04/07 14:25:09;;;;;;;;;;;;;;;;;;2201457;67;1265;-19
2023/04/07 14:27:39;;;;;;;;;;;;;;;;;;2201127;67;1314;-19
2023/04/07 14:30:10;;;;;;;;;;;;;;;;;;2198174;59;1946;-19
2023/04/07 14:32:40;;;;;;;;;;;;;;;;;;2201845;67;1443;-20
2023/04/07 14:35:10;;;;;;;;;;;;;;;;;;2202559;59;1422;-19
2023/04/07 14:37:40;;;;;;;;;;;;;;;;;;2202271;67;1677;-19
2023/04/07 14:40:11;;;;;;;;;;;;;;;;;;2194600;67;1675;-19
2023/04/07 14:42:41;;;;;;;;;;;;;;;;;;2199834;59;2295;-19
2023/04/07 14:45:11;;;;;;;;;;;;;;;;;;2200556;59;2223;-20
2023/04/07 14:47:41;;;;;;;;;;;;;;;;;;2200802;67;1242;-20
2023/04/07 14:50:12;;;;;;;;;;;;;;;;;;2201441;59;1952;-19
2023/04/07 14:52:42;;;;;;;;;;;;;;;;;;2201409;59;2113;-19
2023/04/07 14:55:12;;;;;;;;;;;;;;;;;;2201066;67;1298;-19
2023/04/07 14:57:43;;;;;;;;;;;;;;;;;;2200205;59;2572;-19
2023/04/07 15:00:13;;;;;;;;;;;;;;;;;;2201664;59;2212;-20
2023/04/07 15:02:43;;;;;;;;;;;;;;;;;;2200021;59;2036;-19
2023/04/07 15:05:14;;;;;;;;;;;;;;;;;;2198123;67;1210;-19
2023/04/07 15:07:49;;;;;;;;;;;;;;;;;;2197588;64;2158;-20
2023/04/07 15:10:19;;;;;;;;;;;;;;;;;;2201784;59;1882;-19
2023/04/07 15:12:50;;;;;;;;;;;;;;;;;;2201102;59;2415;-19
2023/04/07 15:15:20;;;;;;;;;;;;;;;;;;2201683;67;1361;-19
2023/04/07 15:17:50;;;;;;;;;;;;;;;;;;2200725;59;2021;-19
2023/04/07 15:20:20;;;;;;;;;;;;;;;;;;2201525;67;1617;-19
2023/04/07 15:22:50;;;;;;;;;;;;;;;;;;2201158;59;2032;-19
2023/04/07 15:25:21;;;;;;;;;;;;;;;;;;2201337;67;1429;-19
2023/04/07 15:27:52;;;;;;;;;;;;;;;;;;2201039;59;2291;-19
2023/04/07 15:30:22;;;;;;;;;;;;;;;;;;2196552;59;2800;-19
2023/04/07 15:32:59;;;;;;;;;;;;;;;;;;2201527;59;2180;-18
2023/04/07 15:35:29;;;;;;;;;;;;;;;;;;2196925;59;1379;-19
2023/04/07 15:38:00;;;;;;;;;;;;;;;;;;2201266;59;2278;-19
2023/04/07 15:40:30;;;;;;;;;;;;;;;;;;2201555;67;1287;-19
2023/04/07 15:43:00;;;;;;;;;;;;;;;;;;2197823;59;2095;-19
2023/04/07 15:45:30;;;;;;;;;;;;;;;;;;2196869;67;2638;-19
2023/04/07 15:48:01;;;;;;;;;;;;;;;;;;2199525;59;2124;-19
2023/04/07 15:50:33;;;;;;;;;;;;;;;;;;2201568;59;1181;-19
2023/04/07 15:53:03;;;;;;;;;;;;;;;;;;2200944;59;2031;-19
2023/04/07 15:55:34;;;;;;;;;;;;;;;;;;2201286;67;1641;-18
2023/04/07 15:58:04;;;;;;;;;;;;;;;;;;2200847;59;2055;-19
2023/04/07 16:00:36;;;;;;;;;;;;;;;;;;2200426;59;2093;-18
2023/04/07 16:03:07;;;;;;;;;;;;;;;;;;2197032;59;2156;-19
2023/04/07 16:05:37;;;;;;;;;;;;;;;;;;2201023;59;1853;-19
2023/04/07 16:08:07;;;;;;;;;;;;;;;;;;2201088;59;1936;-19
2023/04/07 16:10:38;;;;;;;;;;;;;;;;;;2201220;59;1797;-19
2023/04/07 16:13:08;;;;;;;;;;;;;;;;;;2201533;59;2008;-19
2023/04/07 16:15:38;;;;;;;;;;;;;;;;;;2203417;67;1709;-19
2023/04/07 16:18:09;;;;;;;;;;;;;;;;;;2197380;59;1875;-19
2023/04/07 16:20:39;;;;;;;;;;;;;;;;;;2201246;67;1631;-19
2023/04/07 16:23:10;;;;;;;;;;;;;;;;;;2197386;59;1713;-19
2023/04/07 16:25:40;;;;;;;;;;;;;;;;;;2200956;59;2055;-18
2023/04/07 16:28:10;;;;;;;;;;;;;;;;;;2199924;67;1944;-19
2023/04/07 16:30:41;;;;;;;;;;;;;;;;;;2202075;59;2133;-19
2023/04/07 16:33:11;;;;;;;;;;;;;;;;;;2199552;59;2085;-19
2023/04/07 16:35:42;;;;;;;;;;;;;;;;;;2200859;59;1466;-21
2023/04/07 16:38:12;;;;;;;;;;;;;;;;;;2200171;59;2571;-21
2023/04/07 16:40:46;;;;;;;;;;;;;;;;;;2200200;59;1357;-19
2023/04/07 16:43:16;;;;;;;;;;;;;;;;;;2201316;67;1526;-19
2023/04/07 16:45:50;;;;;;;;;;;;;;;;;;2199175;59;2200;-19
2023/04/07 16:48:23;;;;;;;;;;;;;;;;;;2199834;59;2875;-19
2023/04/07 16:50:53;;;;;;;;;;;;;;;;;;2200108;59;2258;-19
2023/04/07 16:53:24;;;;;;;;;;;;;;;;;;2202273;60;1747;-19
2023/04/07 16:55:54;;;;;;;;;;;;;;;;;;2201066;59;1557;-20
2023/04/07 16:58:24;;;;;;;;;;;;;;;;;;2200321;59;2089;-21
2023/04/07 17:00:55;;;;;;;;;;;;;;;;;;2197889;59;1335;-21
2023/04/07 17:03:25;;;;;;;;;;;;;;;;;;2197451;59;2162;-21
2023/04/07 17:05:55;;;;;;;;;;;;;;;;;;2197648;67;1520;-21
2023/04/07 17:08:25;;;;;;;;;;;;;;;;;;2197782;59;2002;-21
2023/04/07 17:10:56;;;;;;;;;;;;;;;;;;2197596;59;1962;-21
2023/04/07 17:13:26;;;;;;;;;;;;;;;;;;2192456;59;2507;-21
2023/04/07 17:15:56;;;;;;;;;;;;;;;;;;2194002;67;1798;-21
2023/04/07 17:18:26;;;;;;;;;;;;;;;;;;2197173;59;2068;-23
2023/04/07 17:20:57;;;;;;;;;;;;;;;;;;2197837;67;1330;-23
2023/04/07 17:23:27;;;;;;;;;;;;;;;;;;2193598;59;2235;-21
2023/04/07 17:25:57;;;;;;;;;;;;;;;;;;2193919;59;1850;-22
2023/04/07 17:31:35;;;;;;;;;;;;;;;;;;2140280;59;1456;-23
2023/04/07 17:34:12;;;;;;;;;;;;;;;;;;2140870;59;1968;-24
2023/04/07 17:36:43;;;;;;;;;;;;;;;;;;2142789;59;2140;-24